Time;durP1;ratioP1;P1;durP2;ratioP2;P2;SDS_P1;SDS_P2;PMS_P1;PMS_P2;Temp;Humidity;BMP_temperature;BMP_pressure;BME280_temperature;BME280_humidity;BME280_pressure;Samples;Min_cycle;Max_cycle;Signal;HPM_P1;HPM_P2
2021/04/30 00:01:22;;;;;;;27.95;8.77;;;;;;;;;;5069419;28;20380;-68
2021/04/30 00:03:48;;;;;;;20.63;7.93;;;;;;;;;;5062690;28;20435;-67
2021/04/30 00:06:13;;;;;;;21.90;8.48;;;;;;;;;;5058572;28;20267;-68
2021/04/30 00:08:39;;;;;;;22.23;8.15;;;;;;;;;;5066693;28;20033;-67
2021/04/30 00:11:04;;;;;;;16.83;6.65;;;;;;;;;;5064493;28;20023;-68
2021/04/30 00:13:30;;;;;;;24.63;7.57;;;;;;;;;;5059685;28;20023;-68
2021/04/30 00:15:55;;;;;;;20.40;7.47;;;;;;;;;;5064767;28;20017;-69
2021/04/30 00:18:20;;;;;;;24.60;7.72;;;;;;;;;;5067151;28;20056;-68
2021/04/30 00:20:54;;;;;;;22.40;7.68;;;;;;;;;;5070104;28;20031;-69
2021/04/30 00:23:24;;;;;;;19.90;7.40;;;;;;;;;;5070087;28;20021;-69
2021/04/30 00:25:49;;;;;;;18.95;6.72;;;;;;;;;;5069840;28;20372;-68
2021/04/30 00:28:15;;;;;;;24.65;6.97;;;;;;;;;;5069559;28;20025;-68
2021/04/30 00:30:42;;;;;;;30.53;9.23;;;;;;;;;;5068323;28;20024;-68
2021/04/30 00:33:08;;;;;;;18.50;7.15;;;;;;;;;;5067097;28;20259;-68
2021/04/30 00:35:33;;;;;;;24.08;6.68;;;;;;;;;;5069281;28;20081;-68
2021/04/30 00:37:58;;;;;;;26.08;7.32;;;;;;;;;;5068934;28;20039;-68
2021/04/30 00:40:23;;;;;;;25.42;7.88;;;;;;;;;;5070038;28;20487;-68
2021/04/30 00:42:55;;;;;;;18.63;7.85;;;;;;;;;;5068707;28;20449;-68
2021/04/30 00:45:22;;;;;;;27.38;7.55;;;;;;;;;;5070402;28;20423;-67
2021/04/30 00:47:48;;;;;;;22.65;7.45;;;;;;;;;;5047839;28;20029;-68
2021/04/30 00:50:13;;;;;;;20.20;8.27;;;;;;;;;;5068455;28;20029;-67
2021/04/30 00:52:38;;;;;;;27.45;7.38;;;;;;;;;;5068348;28;20108;-68
2021/04/30 00:55:05;;;;;;;15.77;6.90;;;;;;;;;;5061521;28;20116;-68
2021/04/30 00:57:30;;;;;;;27.55;9.85;;;;;;;;;;5064595;28;20028;-67
2021/04/30 00:59:55;;;;;;;22.67;8.30;;;;;;;;;;5068945;28;20025;-67
2021/04/30 01:02:21;;;;;;;21.92;7.20;;;;;;;;;;5069261;28;20028;-68
2021/04/30 01:04:46;;;;;;;27.42;9.23;;;;;;;;;;5068096;28;20012;-68
2021/04/30 01:07:11;;;;;;;22.13;8.93;;;;;;;;;;5069025;28;20028;-67
2021/04/30 01:09:36;;;;;;;27.17;8.82;;;;;;;;;;5071560;28;20069;-67
2021/04/30 01:12:03;;;;;;;21.33;8.65;;;;;;;;;;5072575;28;20012;-68
2021/04/30 01:14:29;;;;;;;20.52;8.00;;;;;;;;;;5073704;28;20027;-68
2021/04/30 01:16:54;;;;;;;23.83;8.55;;;;;;;;;;5073189;28;20072;-67
2021/04/30 01:19:22;;;;;;;20.00;8.73;;;;;;;;;;5073239;28;20476;-68
2021/04/30 01:21:55;;;;;;;29.45;9.90;;;;;;;;;;5072772;28;20237;-67
2021/04/30 01:24:20;;;;;;;27.38;9.15;;;;;;;;;;5070725;28;20525;-69
2021/04/30 01:26:45;;;;;;;20.10;7.78;;;;;;;;;;5068755;28;20028;-68
2021/04/30 01:29:11;;;;;;;22.83;9.05;;;;;;;;;;5072876;28;20033;-67
2021/04/30 01:31:36;;;;;;;20.15;8.82;;;;;;;;;;5072585;28;20015;-68
2021/04/30 01:34:02;;;;;;;21.00;8.23;;;;;;;;;;5072732;28;20086;-69
2021/04/30 01:36:27;;;;;;;46.38;11.73;;;;;;;;;;5073255;28;20016;-68
2021/04/30 01:38:53;;;;;;;22.90;8.55;;;;;;;;;;5072390;28;20456;-68
2021/04/30 01:41:19;;;;;;;24.20;9.45;;;;;;;;;;5072645;28;20032;-68
2021/04/30 01:43:44;;;;;;;19.17;8.93;;;;;;;;;;5073090;28;20047;-68
2021/04/30 01:46:10;;;;;;;18.45;7.32;;;;;;;;;;5067349;28;20429;-68
2021/04/30 01:48:35;;;;;;;28.05;8.88;;;;;;;;;;5070171;28;20028;-68
2021/04/30 01:51:02;;;;;;;21.95;9.13;;;;;;;;;;5072684;28;20062;-68
2021/04/30 01:53:28;;;;;;;28.23;9.27;;;;;;;;;;5071777;28;20381;-67
2021/04/30 01:55:54;;;;;;;23.05;9.98;;;;;;;;;;5069575;28;20052;-68
2021/04/30 01:58:19;;;;;;;23.33;10.35;;;;;;;;;;5071863;28;20142;-68
2021/04/30 02:00:45;;;;;;;27.40;9.02;;;;;;;;;;5093666;22;20048;-86
2021/04/30 02:03:10;;;;;;;27.40;10.02;;;;;;;;;;5047054;28;20016;-85
2021/04/30 02:05:36;;;;;;;21.88;9.63;;;;;;;;;;5043092;28;20075;-85
2021/04/30 02:08:03;;;;;;;29.67;9.95;;;;;;;;;;5042088;28;20017;-85
2021/04/30 02:10:29;;;;;;;27.35;12.35;;;;;;;;;;5050562;28;20107;-85
2021/04/30 02:12:55;;;;;;;25.58;11.68;;;;;;;;;;5050632;28;20185;-85
2021/04/30 02:15:22;;;;;;;26.15;10.68;;;;;;;;;;5052361;28;20504;-85
2021/04/30 02:17:47;;;;;;;23.02;9.38;;;;;;;;;;5069698;28;20020;-85
2021/04/30 02:20:13;;;;;;;29.85;11.55;;;;;;;;;;5052071;28;20109;-85
2021/04/30 02:22:39;;;;;;;26.88;10.48;;;;;;;;;;5052556;28;20020;-85
2021/04/30 02:25:05;;;;;;;32.85;12.50;;;;;;;;;;5070237;28;20016;-85
2021/04/30 02:27:30;;;;;;;24.23;10.88;;;;;;;;;;5050186;28;20471;-86
2021/04/30 02:29:56;;;;;;;26.23;10.13;;;;;;;;;;5051781;28;20029;-85
2021/04/30 02:32:22;;;;;;;22.02;9.95;;;;;;;;;;5052467;28;20052;-85
2021/04/30 02:34:48;;;;;;;26.25;10.60;;;;;;;;;;5069438;28;20029;-85
2021/04/30 02:37:14;;;;;;;23.67;10.57;;;;;;;;;;5052595;28;20541;-85
2021/04/30 02:39:39;;;;;;;24.98;11.95;;;;;;;;;;5068391;28;20024;-87
2021/04/30 02:42:04;;;;;;;26.67;10.68;;;;;;;;;;5051821;28;20121;-84
2021/04/30 02:44:30;;;;;;;23.52;10.90;;;;;;;;;;5052370;28;20020;-85
2021/04/30 02:46:55;;;;;;;22.58;12.18;;;;;;;;;;5065018;28;20088;-85
2021/04/30 02:49:27;;;;;;;28.10;12.25;;;;;;;;;;5043985;28;20044;-85
2021/04/30 02:51:53;;;;;;;30.23;12.50;;;;;;;;;;5052309;28;20013;-85
2021/04/30 02:54:18;;;;;;;26.33;11.82;;;;;;;;;;5051423;28;20031;-86
2021/04/30 02:56:43;;;;;;;28.60;12.57;;;;;;;;;;5050860;28;20058;-85
2021/04/30 02:59:08;;;;;;;29.08;11.15;;;;;;;;;;5069083;28;20021;-85
2021/04/30 03:01:34;;;;;;;31.08;12.68;;;;;;;;;;5069475;28;20575;-84
2021/04/30 03:03:59;;;;;;;27.52;11.65;;;;;;;;;;5053109;28;20361;-85
2021/04/30 03:06:24;;;;;;;34.03;13.05;;;;;;;;;;5047716;28;20016;-85
2021/04/30 03:08:53;;;;;;;25.75;12.65;;;;;;;;;;5055044;28;20025;-84
2021/04/30 03:11:19;;;;;;;31.67;12.85;;;;;;;;;;5051737;28;20028;-85
2021/04/30 03:13:44;;;;;;;35.45;13.70;;;;;;;;;;5065604;28;20028;-86
2021/04/30 03:16:10;;;;;;;36.75;13.50;;;;;;;;;;5050250;28;20399;-85
2021/04/30 03:18:35;;;;;;;28.52;13.60;;;;;;;;;;5050847;28;20032;-85
2021/04/30 03:21:00;;;;;;;29.38;13.90;;;;;;;;;;5051471;28;20025;-86
2021/04/30 03:23:25;;;;;;;33.65;15.57;;;;;;;;;;5051233;28;20047;-85
2021/04/30 03:25:51;;;;;;;31.35;13.73;;;;;;;;;;5051205;28;20020;-85
2021/04/30 03:28:16;;;;;;;29.92;13.48;;;;;;;;;;5054443;28;20028;-85
2021/04/30 03:30:41;;;;;;;33.08;13.93;;;;;;;;;;5062450;28;20020;-87
2021/04/30 03:33:06;;;;;;;31.42;15.18;;;;;;;;;;5068538;28;20484;-86
2021/04/30 03:35:32;;;;;;;36.97;16.50;;;;;;;;;;5069584;28;20055;-87
2021/04/30 03:38:00;;;;;;;31.63;11.77;;;;;;;;;;5067108;28;20257;-85
2021/04/30 03:40:25;;;;;;;26.88;14.43;;;;;;;;;;5051118;28;20024;-86
2021/04/30 03:42:51;;;;;;;33.65;12.82;;;;;;;;;;5068495;28;20029;-86
2021/04/30 03:45:16;;;;;;;35.28;14.43;;;;;;;;;;5068693;28;20472;-85
2021/04/30 03:47:41;;;;;;;37.50;16.80;;;;;;;;;;5048955;28;20020;-85
2021/04/30 03:50:06;;;;;;;36.75;14.57;;;;;;;;;;5046674;28;20031;-86
2021/04/30 03:52:32;;;;;;;34.03;17.13;;;;;;;;;;5050528;28;20028;-85
2021/04/30 03:54:57;;;;;;;30.83;16.50;;;;;;;;;;5050760;28;20032;-86
2021/04/30 03:57:22;;;;;;;41.35;14.75;;;;;;;;;;5049692;28;20025;-86
2021/04/30 03:59:47;;;;;;;25.85;13.50;;;;;;;;;;5068121;28;20036;-85
2021/04/30 04:02:13;;;;;;;29.13;13.32;;;;;;;;;;5069195;28;20108;-85
2021/04/30 04:04:38;;;;;;;36.58;16.35;;;;;;;;;;5068761;28;20142;-85
2021/04/30 04:07:03;;;;;;;35.63;13.68;;;;;;;;;;5038111;28;20016;-85
2021/04/30 04:09:29;;;;;;;35.75;16.15;;;;;;;;;;5041674;28;20385;-86
2021/04/30 04:11:54;;;;;;;41.45;17.45;;;;;;;;;;5046298;28;20063;-86
2021/04/30 04:14:19;;;;;;;34.67;16.52;;;;;;;;;;5045489;28;20024;-85
2021/04/30 04:16:44;;;;;;;37.33;19.15;;;;;;;;;;5056958;28;20035;-86
2021/04/30 04:19:09;;;;;;;39.45;17.50;;;;;;;;;;5047373;28;20044;-86
2021/04/30 04:21:35;;;;;;;46.20;20.08;;;;;;;;;;5045974;28;20066;-86
2021/04/30 04:24:00;;;;;;;37.70;20.85;;;;;;;;;;5045393;28;20027;-86
2021/04/30 04:26:25;;;;;;;35.58;21.00;;;;;;;;;;5063385;28;20017;-84
2021/04/30 04:28:51;;;;;;;39.70;19.98;;;;;;;;;;5046798;28;20104;-87
2021/04/30 04:31:16;;;;;;;44.90;20.25;;;;;;;;;;5046964;28;20044;-86
2021/04/30 04:33:41;;;;;;;37.53;19.60;;;;;;;;;;5065551;28;20025;-85
2021/04/30 04:36:06;;;;;;;32.20;16.17;;;;;;;;;;5041417;28;20028;-86
2021/04/30 04:38:32;;;;;;;40.40;19.65;;;;;;;;;;5046547;28;20491;-86
2021/04/30 04:40:57;;;;;;;45.38;20.63;;;;;;;;;;5065448;28;20044;-86
2021/04/30 04:43:22;;;;;;;36.90;19.40;;;;;;;;;;5069770;28;20100;-85
2021/04/30 04:45:47;;;;;;;37.20;18.05;;;;;;;;;;5032965;28;20532;-86
2021/04/30 04:48:13;;;;;;;45.97;23.63;;;;;;;;;;5070122;28;20021;-86
2021/04/30 04:50:38;;;;;;;39.17;23.05;;;;;;;;;;5049582;28;20484;-85
2021/04/30 04:53:03;;;;;;;36.72;20.90;;;;;;;;;;5061757;28;20016;-85
2021/04/30 04:55:28;;;;;;;41.05;21.70;;;;;;;;;;5036793;28;20028;-85
2021/04/30 04:57:54;;;;;;;47.80;22.33;;;;;;;;;;5046505;28;20032;-86
2021/04/30 05:00:19;;;;;;;42.42;20.75;;;;;;;;;;5056098;28;20035;-86
2021/04/30 05:02:44;;;;;;;47.67;21.55;;;;;;;;;;5066803;28;20027;-86
2021/04/30 05:05:10;;;;;;;39.28;22.85;;;;;;;;;;5058826;28;20028;-86
2021/04/30 05:07:35;;;;;;;35.28;18.20;;;;;;;;;;5061296;28;20392;-86
2021/04/30 05:10:01;;;;;;;47.35;24.13;;;;;;;;;;5042865;28;20476;-85
2021/04/30 05:12:26;;;;;;;43.30;23.83;;;;;;;;;;5045722;28;20020;-85
2021/04/30 05:14:51;;;;;;;44.40;23.27;;;;;;;;;;5054919;28;20020;-86
2021/04/30 05:17:17;;;;;;;50.75;21.83;;;;;;;;;;5040600;28;20074;-85
2021/04/30 05:19:42;;;;;;;52.58;21.75;;;;;;;;;;5045200;28;20024;-85
2021/04/30 05:22:11;;;;;;;59.42;21.55;;;;;;;;;;5048854;28;20081;-86
2021/04/30 05:24:36;;;;;;;47.40;20.90;;;;;;;;;;5064792;28;20020;-86
2021/04/30 05:27:05;;;;;;;46.42;21.67;;;;;;;;;;5045240;28;20024;-85
2021/04/30 05:29:32;;;;;;;47.60;22.08;;;;;;;;;;5045104;28;20047;-85
2021/04/30 05:31:57;;;;;;;42.35;20.38;;;;;;;;;;5046864;28;20021;-85
2021/04/30 05:34:22;;;;;;;44.05;21.90;;;;;;;;;;5056469;28;20025;-85
2021/04/30 05:36:47;;;;;;;37.40;15.82;;;;;;;;;;5060812;28;20024;-85
2021/04/30 05:39:13;;;;;;;49.92;19.30;;;;;;;;;;5064866;28;20047;-85
2021/04/30 05:41:38;;;;;;;32.33;20.38;;;;;;;;;;5060407;28;20029;-85
2021/04/30 05:44:03;;;;;;;52.35;22.02;;;;;;;;;;5047640;28;20043;-86
2021/04/30 05:46:28;;;;;;;40.85;21.27;;;;;;;;;;5047511;28;20024;-85
2021/04/30 05:48:54;;;;;;;41.65;20.42;;;;;;;;;;5042925;28;20017;-85
2021/04/30 05:51:19;;;;;;;38.00;20.90;;;;;;;;;;5045760;28;20079;-85
2021/04/30 05:53:44;;;;;;;45.38;20.52;;;;;;;;;;5052612;28;20029;-85
2021/04/30 05:56:09;;;;;;;39.03;19.45;;;;;;;;;;5048771;28;20098;-84
2021/04/30 05:58:35;;;;;;;42.58;21.30;;;;;;;;;;5052114;28;20158;-84
2021/04/30 06:01:03;;;;;;;44.00;20.23;;;;;;;;;;5051924;28;20098;-84
2021/04/30 06:03:28;;;;;;;44.30;20.67;;;;;;;;;;5070794;28;20107;-85
2021/04/30 06:05:53;;;;;;;35.05;19.45;;;;;;;;;;5048530;28;20104;-85
2021/04/30 06:08:19;;;;;;;41.10;20.02;;;;;;;;;;5047007;28;20170;-83
2021/04/30 06:10:44;;;;;;;42.38;19.88;;;;;;;;;;5071717;28;20063;-84
2021/04/30 06:13:09;;;;;;;42.72;22.25;;;;;;;;;;5052466;28;20050;-84
2021/04/30 06:15:34;;;;;;;44.97;21.25;;;;;;;;;;5053516;28;20028;-84
2021/04/30 06:18:00;;;;;;;42.63;19.65;;;;;;;;;;5051876;28;20028;-85
2021/04/30 06:20:25;;;;;;;29.42;13.80;;;;;;;;;;5054756;28;20025;-84
2021/04/30 06:22:50;;;;;;;36.70;19.60;;;;;;;;;;5063587;28;20032;-85
2021/04/30 06:25:16;;;;;;;43.95;19.83;;;;;;;;;;5068670;28;20080;-85
2021/04/30 06:27:41;;;;;;;47.13;18.60;;;;;;;;;;5060305;28;20103;-84
2021/04/30 06:30:07;;;;;;;40.20;19.35;;;;;;;;;;5072581;28;20016;-85
2021/04/30 06:32:32;;;;;;;49.58;20.52;;;;;;;;;;5073689;28;20028;-85
2021/04/30 06:34:57;;;;;;;39.72;20.98;;;;;;;;;;5089507;28;20025;-85
2021/04/30 06:37:26;;;;;;;47.72;20.63;;;;;;;;;;5074327;28;20004;-84
2021/04/30 06:39:51;;;;;;;41.58;19.00;;;;;;;;;;5054635;28;20025;-84
2021/04/30 06:42:17;;;;;;;37.20;19.33;;;;;;;;;;5046726;28;20149;-84
2021/04/30 06:44:42;;;;;;;57.55;26.08;;;;;;;;;;5069901;28;20021;-84
2021/04/30 06:47:07;;;;;;;60.38;27.92;;;;;;;;;;5050545;28;20034;-84
2021/04/30 06:49:32;;;;;;;63.17;32.28;;;;;;;;;;5069141;28;20020;-85
2021/04/30 06:51:57;;;;;;;65.10;30.42;;;;;;;;;;5051608;28;20044;-85
2021/04/30 06:54:23;;;;;;;50.42;25.95;;;;;;;;;;5039610;28;20028;-85
2021/04/30 06:56:48;;;;;;;57.03;26.00;;;;;;;;;;5049785;28;20028;-84
2021/04/30 06:59:13;;;;;;;62.28;27.23;;;;;;;;;;5041022;28;20387;-84
2021/04/30 07:01:39;;;;;;;45.20;26.63;;;;;;;;;;5046882;28;20028;-84
2021/04/30 07:04:04;;;;;;;54.17;25.63;;;;;;;;;;5063318;28;20024;-84
2021/04/30 07:06:29;;;;;;;48.60;25.90;;;;;;;;;;5052586;28;20549;-84
2021/04/30 07:08:55;;;;;;;52.90;25.60;;;;;;;;;;5042661;28;20629;-84
2021/04/30 07:11:20;;;;;;;58.40;26.17;;;;;;;;;;5068977;28;20028;-84
2021/04/30 07:13:45;;;;;;;59.67;26.98;;;;;;;;;;5050138;28;20721;-85
2021/04/30 07:16:11;;;;;;;57.03;25.42;;;;;;;;;;5062226;28;20036;-84
2021/04/30 07:18:36;;;;;;;60.95;27.13;;;;;;;;;;5066024;28;20575;-85
2021/04/30 07:21:02;;;;;;;55.47;27.17;;;;;;;;;;5044587;28;20667;-84
2021/04/30 07:23:28;;;;;;;60.60;30.98;;;;;;;;;;5071969;28;20023;-85
2021/04/30 07:25:53;;;;;;;50.35;26.95;;;;;;;;;;5052728;28;20029;-85
2021/04/30 07:28:18;;;;;;;51.55;27.45;;;;;;;;;;5050326;28;20017;-84
2021/04/30 07:30:44;;;;;;;53.20;27.60;;;;;;;;;;5044511;28;20024;-84
2021/04/30 07:33:15;;;;;;;61.25;27.20;;;;;;;;;;5048290;28;20035;-85
2021/04/30 07:35:41;;;;;;;55.92;25.38;;;;;;;;;;5068252;28;20017;-85
2021/04/30 07:38:07;;;;;;;70.93;30.70;;;;;;;;;;5063306;28;20523;-85
2021/04/30 07:40:33;;;;;;;61.55;30.42;;;;;;;;;;5055215;28;20085;-84
2021/04/30 07:42:58;;;;;;;65.20;33.35;;;;;;;;;;5071785;28;20051;-85
2021/04/30 07:45:23;;;;;;;71.85;31.92;;;;;;;;;;5052824;28;20050;-84
2021/04/30 07:47:49;;;;;;;66.28;31.33;;;;;;;;;;5103518;23;20044;-66
2021/04/30 07:50:14;;;;;;;59.17;31.35;;;;;;;;;;5091965;28;20028;-67
2021/04/30 07:52:40;;;;;;;77.32;35.60;;;;;;;;;;5088183;28;20036;-66
2021/04/30 07:55:05;;;;;;;71.68;36.55;;;;;;;;;;5079346;28;20055;-66
2021/04/30 07:57:30;;;;;;;82.80;35.10;;;;;;;;;;5088929;28;20032;-66
2021/04/30 07:59:56;;;;;;;65.43;32.05;;;;;;;;;;5077192;22;20490;-63
2021/04/30 08:02:21;;;;;;;82.20;34.63;;;;;;;;;;5035462;28;20048;-62
2021/04/30 08:04:47;;;;;;;45.00;19.52;;;;;;;;;;5034883;28;20102;-63
2021/04/30 08:07:13;;;;;;;74.50;30.15;;;;;;;;;;5033859;28;20049;-62
2021/04/30 08:09:38;;;;;;;64.07;29.77;;;;;;;;;;5029829;28;21124;-62
2021/04/30 08:12:04;;;;;;;50.78;23.48;;;;;;;;;;5029383;28;20095;-62
2021/04/30 08:14:30;;;;;;;62.28;26.77;;;;;;;;;;5028911;28;20478;-62
2021/04/30 08:16:55;;;;;;;61.20;32.55;;;;;;;;;;5029461;28;20018;-63
2021/04/30 08:19:20;;;;;;;68.35;32.78;;;;;;;;;;5027975;28;20025;-63
2021/04/30 08:21:46;;;;;;;65.65;32.08;;;;;;;;;;5029412;28;20462;-63
2021/04/30 08:24:11;;;;;;;63.67;36.17;;;;;;;;;;5029627;28;20026;-63
2021/04/30 08:26:36;;;;;;;92.10;36.60;;;;;;;;;;5012354;28;20497;-63
2021/04/30 08:29:01;;;;;;;72.30;34.95;;;;;;;;;;5025007;28;20104;-63
2021/04/30 08:31:28;;;;;;;73.97;36.33;;;;;;;;;;5028736;28;20025;-63
2021/04/30 08:33:53;;;;;;;70.75;35.75;;;;;;;;;;5030280;28;20076;-63
2021/04/30 08:36:21;;;;;;;68.03;30.13;;;;;;;;;;5025698;28;20509;-63
2021/04/30 08:38:46;;;;;;;72.47;38.65;;;;;;;;;;5026904;28;20053;-63
2021/04/30 08:41:11;;;;;;;60.08;30.30;;;;;;;;;;5028303;28;20069;-64
2021/04/30 08:43:37;;;;;;;63.05;25.77;;;;;;;;;;5029084;28;20486;-63
2021/04/30 08:46:05;;;;;;;57.33;28.70;;;;;;;;;;5029243;28;20025;-63
2021/04/30 08:48:31;;;;;;;46.40;17.10;;;;;;;;;;5029379;28;20009;-63
2021/04/30 08:50:56;;;;;;;45.10;22.20;;;;;;;;;;5028133;28;20056;-63
2021/04/30 08:53:22;;;;;;;52.03;24.55;;;;;;;;;;5018195;28;20072;-63
2021/04/30 08:55:50;;;;;;;31.05;12.82;;;;;;;;;;5024086;28;20359;-63
2021/04/30 08:58:21;;;;;;;76.03;31.27;;;;;;;;;;5026081;28;20033;-63
2021/04/30 09:00:46;;;;;;;71.85;32.28;;;;;;;;;;5028336;28;20488;-63
2021/04/30 09:03:11;;;;;;;58.22;27.67;;;;;;;;;;5027816;28;20033;-63
2021/04/30 09:05:44;;;;;;;53.88;24.13;;;;;;;;;;5029221;28;20465;-63
2021/04/30 09:08:09;;;;;;;58.83;22.02;;;;;;;;;;5027822;28;20021;-63
2021/04/30 09:10:41;;;;;;;62.08;28.08;;;;;;;;;;5015980;28;20469;-63
2021/04/30 09:13:08;;;;;;;41.65;21.02;;;;;;;;;;5018250;28;20043;-63
2021/04/30 09:15:34;;;;;;;42.85;15.82;;;;;;;;;;5028737;28;20026;-63
2021/04/30 09:18:15;;;;;;;60.45;24.33;;;;;;;;;;5028633;28;20032;-63
2021/04/30 09:20:40;;;;;;;52.50;26.52;;;;;;;;;;5025607;28;20466;-64
2021/04/30 09:23:25;;;;;;;60.35;27.08;;;;;;;;;;5027290;28;20037;-64
2021/04/30 09:25:51;;;;;;;56.40;28.50;;;;;;;;;;5030473;28;20366;-63
2021/04/30 09:28:16;;;;;;;59.00;27.02;;;;;;;;;;5031583;28;20033;-63
2021/04/30 09:30:41;;;;;;;53.93;25.37;;;;;;;;;;5030375;28;20107;-63
2021/04/30 09:33:09;;;;;;;56.20;25.48;;;;;;;;;;5028337;28;20772;-64
2021/04/30 09:35:39;;;;;;;61.45;23.05;;;;;;;;;;5015725;28;20049;-63
2021/04/30 09:38:23;;;;;;;65.25;27.50;;;;;;;;;;5030152;28;20025;-64
2021/04/30 09:40:49;;;;;;;79.22;29.60;;;;;;;;;;5029066;28;20359;-64
2021/04/30 09:43:15;;;;;;;61.92;26.35;;;;;;;;;;5031396;28;20021;-64
2021/04/30 09:45:41;;;;;;;57.72;26.52;;;;;;;;;;5029970;28;20026;-64
2021/04/30 09:48:07;;;;;;;55.15;27.33;;;;;;;;;;5031414;28;20501;-64
2021/04/30 09:50:34;;;;;;;54.47;27.17;;;;;;;;;;5031816;28;20122;-63
2021/04/30 09:53:00;;;;;;;68.55;30.50;;;;;;;;;;5032196;28;20063;-64
2021/04/30 09:55:43;;;;;;;49.17;25.38;;;;;;;;;;5027714;28;20099;-63
2021/04/30 09:58:12;;;;;;;70.50;29.85;;;;;;;;;;5026113;28;20090;-64
2021/04/30 10:00:37;;;;;;;58.40;26.60;;;;;;;;;;5031572;28;20167;-63
2021/04/30 10:03:32;;;;;;;45.67;26.35;;;;;;;;;;5023244;28;20388;-63
2021/04/30 10:06:20;;;;;;;54.70;28.60;;;;;;;;;;5007646;28;20026;-63
2021/04/30 10:09:05;;;;;;;43.25;20.77;;;;;;;;;;5020467;28;20021;-63
2021/04/30 10:11:31;;;;;;;63.33;29.58;;;;;;;;;;5026756;28;20025;-63
2021/04/30 10:13:56;;;;;;;61.55;23.17;;;;;;;;;;5032369;28;20021;-63
2021/04/30 10:16:22;;;;;;;59.47;29.52;;;;;;;;;;5032635;28;20305;-64
2021/04/30 10:18:47;;;;;;;56.85;25.38;;;;;;;;;;5027044;28;20025;-64
2021/04/30 10:21:12;;;;;;;63.78;31.27;;;;;;;;;;5027559;28;20080;-65
2021/04/30 10:23:38;;;;;;;58.35;25.58;;;;;;;;;;5032336;28;20025;-65
2021/04/30 10:26:04;;;;;;;63.85;29.25;;;;;;;;;;5031585;28;20381;-64
2021/04/30 10:28:31;;;;;;;66.35;28.15;;;;;;;;;;5032274;28;20076;-65
2021/04/30 10:30:59;;;;;;;61.65;30.30;;;;;;;;;;5031036;28;20021;-64
2021/04/30 10:33:43;;;;;;;62.38;30.05;;;;;;;;;;5029090;28;20022;-64
2021/04/30 10:36:08;;;;;;;69.00;28.25;;;;;;;;;;5028085;28;20047;-65
2021/04/30 10:38:41;;;;;;;66.63;27.35;;;;;;;;;;5022221;28;20096;-64
2021/04/30 10:41:08;;;;;;;52.35;25.85;;;;;;;;;;5031239;28;20103;-65
2021/04/30 10:43:33;;;;;;;64.63;27.85;;;;;;;;;;5031588;28;20028;-65
2021/04/30 10:46:02;;;;;;;64.85;28.50;;;;;;;;;;5031050;28;20017;-65
2021/04/30 10:48:27;;;;;;;65.63;26.13;;;;;;;;;;5030879;28;20022;-65
2021/04/30 10:51:06;;;;;;;56.97;24.38;;;;;;;;;;5026555;28;20306;-64
2021/04/30 10:53:31;;;;;;;61.85;24.65;;;;;;;;;;5030674;28;20031;-65
2021/04/30 10:55:56;;;;;;;55.50;24.47;;;;;;;;;;5031025;28;20459;-64
2021/04/30 10:58:37;;;;;;;61.40;26.80;;;;;;;;;;5030874;28;20268;-64
2021/04/30 11:01:22;;;;;;;67.40;30.48;;;;;;;;;;5028119;28;20033;-64
2021/04/30 11:04:05;;;;;;;53.45;29.13;;;;;;;;;;5030941;28;20025;-65
2021/04/30 11:06:31;;;;;;;44.08;25.83;;;;;;;;;;5031117;28;20025;-65
2021/04/30 11:09:00;;;;;;;51.67;26.33;;;;;;;;;;5030254;28;20481;-63
2021/04/30 11:11:32;;;;;;;52.08;26.80;;;;;;;;;;5030680;28;20106;-64
2021/04/30 11:14:15;;;;;;;51.75;27.00;;;;;;;;;;5031195;28;20112;-64
2021/04/30 11:16:40;;;;;;;51.50;28.60;;;;;;;;;;5031191;28;20210;-65
2021/04/30 11:19:05;;;;;;;55.95;27.48;;;;;;;;;;5029168;28;20559;-65
2021/04/30 11:22:00;;;;;;;48.05;24.77;;;;;;;;;;5030145;28;20033;-64
2021/04/30 11:24:28;;;;;;;56.10;25.67;;;;;;;;;;5019759;28;20104;-64
2021/04/30 11:27:08;;;;;;;67.10;26.83;;;;;;;;;;5029635;28;20025;-65
2021/04/30 11:29:33;;;;;;;;;;;;;;;;;;5030745;28;20017;-64
2021/04/30 11:32:17;;;;;;;53.50;27.58;;;;;;;;;;5029750;28;19934;-65
2021/04/30 11:34:55;;;;;;;62.38;28.30;;;;;;;;;;5029711;28;20025;-65
2021/04/30 11:37:21;;;;;;;61.15;29.42;;;;;;;;;;5030563;28;20079;-64
2021/04/30 11:39:47;;;;;;;83.68;37.10;;;;;;;;;;5021830;28;20470;-65
2021/04/30 11:42:13;;;;;;;65.28;30.70;;;;;;;;;;5030071;28;20026;-66
2021/04/30 11:44:39;;;;;;;68.78;33.15;;;;;;;;;;5029672;28;20143;-65
2021/04/30 11:47:05;;;;;;;55.28;28.52;;;;;;;;;;5026428;28;20413;-66
2021/04/30 11:49:32;;;;;;;55.45;28.73;;;;;;;;;;5025563;28;20014;-65
2021/04/30 11:51:57;;;;;;;63.70;26.45;;;;;;;;;;5030157;28;20023;-65
2021/04/30 11:54:26;;;;;;;51.53;26.17;;;;;;;;;;5029307;28;20018;-65
2021/04/30 11:57:02;;;;;;;61.85;27.77;;;;;;;;;;5027692;28;20021;-65
2021/04/30 11:59:28;;;;;;;57.20;27.48;;;;;;;;;;5030055;28;20025;-65
2021/04/30 12:01:57;;;;;;;54.17;27.25;;;;;;;;;;5024579;28;20040;-66
2021/04/30 12:04:41;;;;;;;52.42;26.63;;;;;;;;;;5029911;28;20022;-64
2021/04/30 12:07:07;;;;;;;52.95;25.52;;;;;;;;;;5028850;28;20583;-64
2021/04/30 12:09:32;;;;;;;54.45;26.58;;;;;;;;;;5030424;28;20223;-64
2021/04/30 12:12:11;;;;;;;55.63;25.83;;;;;;;;;;5029991;28;20025;-65
2021/04/30 12:14:46;;;;;;;51.67;25.33;;;;;;;;;;5029470;28;20075;-65
2021/04/30 12:17:45;;;;;;;44.78;26.65;;;;;;;;;;5020294;28;20494;-65
2021/04/30 12:20:18;;;;;;;54.35;26.42;;;;;;;;;;5002112;28;20042;-65
2021/04/30 12:23:04;;;;;;;52.22;24.63;;;;;;;;;;5030138;28;20469;-65
2021/04/30 12:25:33;;;;;;;48.78;27.75;;;;;;;;;;5029630;28;20041;-65
2021/04/30 12:28:11;;;;;;;52.43;26.17;;;;;;;;;;5030163;28;20381;-65
2021/04/30 12:30:36;;;;;;;52.38;25.98;;;;;;;;;;5028882;28;20418;-65
2021/04/30 12:33:01;;;;;;;55.88;23.65;;;;;;;;;;5024772;28;20490;-65
2021/04/30 12:35:27;;;;;;;54.60;27.67;;;;;;;;;;5027546;28;20435;-66
2021/04/30 12:37:53;;;;;;;41.22;22.13;;;;;;;;;;5027492;28;20362;-65
2021/04/30 12:40:25;;;;;;;56.47;23.45;;;;;;;;;;5028451;28;20029;-65
2021/04/30 12:42:52;;;;;;;49.78;23.50;;;;;;;;;;5029593;28;20588;-65
2021/04/30 12:45:17;;;;;;;45.03;23.52;;;;;;;;;;5029806;28;20025;-66
2021/04/30 12:47:43;;;;;;;48.20;25.15;;;;;;;;;;5029047;28;20022;-66
2021/04/30 12:50:10;;;;;;;44.08;24.88;;;;;;;;;;5023654;28;20037;-65
2021/04/30 12:52:36;;;;;;;43.25;24.00;;;;;;;;;;5025415;28;20108;-66
2021/04/30 12:55:19;;;;;;;43.95;23.65;;;;;;;;;;5027071;28;20104;-65
2021/04/30 12:57:44;;;;;;;37.97;22.60;;;;;;;;;;5028578;28;20075;-66
2021/04/30 13:00:10;;;;;;;49.65;24.23;;;;;;;;;;5029501;28;20029;-66
2021/04/30 13:02:35;;;;;;;55.45;24.30;;;;;;;;;;5021879;28;20013;-65
2021/04/30 13:05:01;;;;;;;48.80;25.47;;;;;;;;;;5032309;28;20517;-65
2021/04/30 13:07:26;;;;;;;58.42;26.75;;;;;;;;;;5032660;28;20264;-66
2021/04/30 13:09:51;;;;;;;41.25;22.70;;;;;;;;;;5033104;28;20056;-65
2021/04/30 13:12:17;;;;;;;45.57;21.93;;;;;;;;;;5032670;28;20512;-66
2021/04/30 13:14:42;;;;;;;45.58;22.52;;;;;;;;;;5033531;28;20527;-65
2021/04/30 13:17:14;;;;;;;44.00;22.43;;;;;;;;;;5032683;28;20025;-65
2021/04/30 13:19:39;;;;;;;49.30;23.15;;;;;;;;;;5032623;28;20268;-66
2021/04/30 13:22:11;;;;;;;45.73;23.40;;;;;;;;;;5019523;28;20022;-64
2021/04/30 13:24:38;;;;;;;37.28;20.30;;;;;;;;;;5017770;28;20264;-65
2021/04/30 13:27:05;;;;;;;41.53;19.05;;;;;;;;;;5033228;28;20203;-65
2021/04/30 13:29:34;;;;;;;35.97;19.50;;;;;;;;;;5030265;28;20022;-64
2021/04/30 13:32:02;;;;;;;36.63;19.05;;;;;;;;;;5032704;28;20037;-64
2021/04/30 13:34:38;;;;;;;38.97;17.27;;;;;;;;;;5019910;28;20022;-65
2021/04/30 13:37:04;;;;;;;33.80;18.90;;;;;;;;;;5033248;28;20244;-65
2021/04/30 13:39:33;;;;;;;38.20;21.00;;;;;;;;;;5033119;28;20108;-64
2021/04/30 13:41:59;;;;;;;40.30;19.42;;;;;;;;;;5032843;28;20021;-65
2021/04/30 13:44:25;;;;;;;36.38;16.95;;;;;;;;;;5032851;28;20028;-65
2021/04/30 13:46:54;;;;;;;35.92;18.67;;;;;;;;;;5032858;28;20013;-65
2021/04/30 13:49:20;;;;;;;34.67;19.02;;;;;;;;;;5025760;28;20397;-65
2021/04/30 13:51:45;;;;;;;37.03;19.77;;;;;;;;;;5031910;28;20036;-66
2021/04/30 13:54:11;;;;;;;38.38;19.65;;;;;;;;;;5033114;28;20029;-65
2021/04/30 13:56:36;;;;;;;40.47;20.52;;;;;;;;;;5032970;28;20064;-65
2021/04/30 13:59:04;;;;;;;35.20;19.10;;;;;;;;;;5041779;23;20049;-86
2021/04/30 14:01:31;;;;;;;44.28;20.85;;;;;;;;;;5036854;28;20041;-85
2021/04/30 14:03:56;;;;;;;37.45;18.85;;;;;;;;;;5005040;28;20018;-85
2021/04/30 14:06:21;;;;;;;40.28;18.13;;;;;;;;;;5040838;28;20048;-85
2021/04/30 14:08:47;;;;;;;31.98;16.60;;;;;;;;;;5012630;28;20048;-86
2021/04/30 14:11:12;;;;;;;32.65;17.50;;;;;;;;;;5011007;28;20036;-85
2021/04/30 14:13:37;;;;;;;32.22;17.48;;;;;;;;;;5010010;28;20018;-87
2021/04/30 14:16:03;;;;;;;33.57;17.90;;;;;;;;;;5006902;28;20417;-85
2021/04/30 14:18:28;;;;;;;38.50;19.05;;;;;;;;;;5007260;28;20371;-86